createdAt,value
2022-12-07T00:00:07.752Z,2.73
2022-12-07T00:01:07.739Z,2.68
2022-12-07T00:02:07.761Z,2.69
2022-12-07T00:03:07.767Z,2.75
2022-12-07T00:04:07.703Z,2.78
2022-12-07T00:05:07.706Z,2.86
2022-12-07T00:06:07.682Z,2.79
2022-12-07T00:07:07.667Z,2.86
2022-12-07T00:08:07.785Z,2.79
2022-12-07T00:09:08.556Z,2.78
2022-12-07T00:10:07.649Z,2.78
2022-12-07T00:11:07.648Z,2.72
2022-12-07T00:12:07.688Z,2.76
2022-12-07T00:13:07.611Z,2.68
2022-12-07T00:14:08.070Z,2.75
2022-12-07T00:15:07.617Z,2.75
2022-12-07T00:16:07.683Z,2.75
2022-12-07T00:17:07.568Z,2.75
2022-12-07T00:18:07.561Z,2.76
2022-12-07T00:19:07.549Z,2.76
2022-12-07T00:20:07.564Z,2.79
2022-12-07T00:21:07.527Z,2.78
2022-12-07T00:22:07.517Z,2.84
2022-12-07T00:23:07.559Z,2.87
2022-12-07T00:24:07.495Z,2.87
2022-12-07T00:25:07.487Z,2.87
2022-12-07T00:26:07.474Z,2.82
2022-12-07T00:27:07.477Z,2.87
2022-12-07T00:28:07.485Z,2.96
2022-12-07T00:29:07.452Z,2.82
2022-12-07T00:30:07.432Z,2.91
2022-12-07T00:31:07.432Z,2.90
2022-12-07T00:32:07.486Z,2.97
2022-12-07T00:33:07.406Z,2.91
2022-12-07T00:34:07.447Z,2.86
2022-12-07T00:35:07.381Z,2.89
2022-12-07T00:36:07.368Z,2.87
2022-12-07T00:37:07.414Z,2.81
2022-12-07T00:38:07.353Z,2.76
2022-12-07T00:39:07.335Z,2.89
2022-12-07T00:40:07.322Z,2.90
2022-12-07T00:41:07.324Z,2.79
2022-12-07T00:42:07.312Z,2.87
2022-12-07T00:43:07.395Z,2.84
2022-12-07T00:44:07.285Z,2.78
2022-12-07T00:45:07.314Z,2.89
2022-12-07T00:46:07.313Z,2.84
2022-12-07T00:47:07.257Z,2.82
2022-12-07T00:48:07.248Z,2.87
2022-12-07T00:49:07.233Z,2.81
2022-12-07T00:50:07.233Z,2.84
2022-12-07T00:51:07.551Z,2.84
2022-12-07T00:52:07.204Z,2.84
2022-12-07T00:53:07.194Z,2.82
2022-12-07T00:54:14.715Z,2.84
2022-12-07T00:55:14.712Z,2.81
2022-12-07T00:56:16.166Z,2.76
2022-12-07T00:57:15.687Z,2.76
2022-12-07T00:58:07.144Z,2.78
2022-12-07T00:59:07.159Z,2.79
2022-12-07T01:00:07.278Z,2.75
2022-12-07T01:01:07.160Z,2.61
2022-12-07T01:02:15.637Z,2.72
2022-12-07T01:03:15.674Z,2.75
2022-12-07T01:04:07.080Z,2.66
2022-12-07T01:05:07.068Z,2.55
2022-12-07T01:06:07.071Z,2.66
2022-12-07T01:07:07.060Z,2.68
2022-12-07T01:08:07.088Z,2.69
2022-12-07T01:09:07.048Z,2.66
2022-12-07T01:10:07.034Z,2.69
2022-12-07T01:11:07.009Z,2.65
2022-12-07T01:12:07.009Z,2.61
2022-12-07T01:13:07.019Z,2.69
2022-12-07T01:14:06.985Z,2.65
2022-12-07T01:15:06.989Z,2.66
2022-12-07T01:16:06.974Z,2.73
2022-12-07T01:17:07.028Z,2.73
2022-12-07T01:18:06.942Z,2.72
2022-12-07T01:19:06.946Z,2.76
2022-12-07T01:20:06.916Z,2.73
2022-12-07T01:21:06.919Z,2.66
2022-12-07T01:22:06.922Z,2.69
2022-12-07T01:23:06.898Z,2.66
2022-12-07T01:24:06.884Z,2.63
2022-12-07T01:25:06.877Z,2.61
2022-12-07T01:26:06.859Z,2.68
2022-12-07T01:27:06.843Z,2.54
2022-12-07T01:28:06.848Z,2.53
2022-12-07T01:29:06.839Z,2.54
2022-12-07T01:30:06.818Z,2.61
2022-12-07T01:31:06.975Z,2.51
2022-12-07T01:32:06.800Z,2.61
2022-12-07T01:33:06.793Z,2.68
2022-12-07T01:34:06.806Z,2.68
2022-12-07T01:35:06.785Z,2.63
2022-12-07T01:36:06.751Z,2.68
2022-12-07T01:37:06.740Z,2.65
2022-12-07T01:38:06.741Z,2.66
2022-12-07T01:39:06.791Z,2.66
2022-12-07T01:40:06.741Z,2.72
2022-12-07T01:41:06.706Z,2.69
2022-12-07T01:42:07.695Z,2.75
2022-12-07T01:43:06.693Z,2.72
2022-12-07T01:44:06.715Z,2.71
2022-12-07T01:45:06.703Z,2.68
2022-12-07T01:46:06.710Z,2.79
2022-12-07T01:47:06.656Z,2.78
2022-12-07T01:48:06.632Z,2.75
2022-12-07T01:49:06.756Z,2.78
2022-12-07T01:50:06.620Z,2.75
2022-12-07T01:51:06.611Z,2.71
2022-12-07T01:52:06.598Z,2.79
2022-12-07T01:53:06.570Z,2.66
2022-12-07T01:54:06.594Z,2.75
2022-12-07T01:55:06.577Z,2.66
2022-12-07T01:56:06.552Z,2.66
2022-12-07T01:57:06.533Z,2.66
2022-12-07T01:58:06.529Z,2.65
2022-12-07T01:59:06.539Z,2.63
2022-12-07T02:00:06.587Z,2.66
2022-12-07T02:01:06.575Z,2.68
2022-12-07T02:02:06.549Z,2.69
2022-12-07T02:03:06.577Z,2.61
2022-12-07T02:04:06.470Z,2.71
2022-12-07T02:05:06.468Z,2.69
2022-12-07T02:06:06.465Z,2.61
2022-12-07T02:07:06.779Z,2.65
2022-12-07T02:08:06.498Z,2.63
2022-12-07T02:09:06.438Z,2.68
2022-12-07T02:10:06.402Z,2.71
2022-12-07T02:11:06.399Z,2.63
2022-12-07T02:12:06.384Z,2.72
2022-12-07T02:13:06.378Z,2.65
2022-12-07T02:14:06.416Z,2.65
2022-12-07T02:15:06.346Z,2.68
2022-12-07T02:16:06.408Z,2.66
2022-12-07T02:17:06.333Z,2.63
2022-12-07T02:18:06.326Z,2.61
2022-12-07T02:19:06.341Z,2.60
2022-12-07T02:20:06.320Z,2.68
2022-12-07T02:21:06.296Z,2.63
2022-12-07T02:22:06.286Z,2.65
2022-12-07T02:23:06.280Z,2.65
2022-12-07T02:24:06.263Z,2.66
2022-12-07T02:25:06.253Z,2.65
2022-12-07T02:26:06.281Z,2.73
2022-12-07T02:27:06.226Z,2.68
2022-12-07T02:28:06.226Z,2.71
2022-12-07T02:29:06.233Z,2.72
2022-12-07T02:30:06.532Z,2.68
2022-12-07T02:31:06.275Z,2.68
2022-12-07T02:32:06.192Z,2.72
2022-12-07T02:33:06.162Z,2.69
2022-12-07T02:34:06.172Z,2.75
2022-12-07T02:35:06.234Z,2.69
2022-12-07T02:36:06.154Z,2.75
2022-12-07T02:37:06.146Z,2.76
2022-12-07T02:38:06.131Z,2.69
2022-12-07T02:39:06.119Z,2.69
2022-12-07T02:40:06.098Z,2.75
2022-12-07T02:41:06.106Z,2.71
2022-12-07T02:42:13.604Z,2.72
2022-12-07T02:43:06.069Z,2.81
2022-12-07T02:44:06.050Z,2.75
2022-12-07T02:45:06.046Z,2.79
2022-12-07T02:46:06.188Z,2.79
2022-12-07T02:47:06.025Z,2.72
2022-12-07T02:48:06.009Z,2.81
2022-12-07T02:49:06.008Z,2.76
2022-12-07T02:50:06.028Z,2.82
2022-12-07T02:51:06.015Z,2.75
2022-12-07T02:52:05.972Z,2.76
2022-12-07T02:53:05.977Z,2.79
2022-12-07T02:54:05.961Z,2.81
2022-12-07T02:55:05.948Z,2.81
2022-12-07T02:56:05.929Z,2.78
2022-12-07T02:57:06.750Z,2.84
2022-12-07T02:58:05.935Z,2.86
2022-12-07T02:59:05.909Z,2.81
2022-12-07T03:00:06.319Z,2.91
2022-12-07T03:01:05.983Z,2.84
2022-12-07T03:02:05.977Z,2.87
2022-12-07T03:03:05.978Z,2.84
2022-12-07T03:04:05.842Z,2.79
2022-12-07T03:05:05.838Z,2.84
2022-12-07T03:06:05.828Z,2.82
2022-12-07T03:07:05.833Z,2.84
2022-12-07T03:09:06.853Z,2.82
2022-12-07T03:10:06.752Z,2.82
2022-12-07T03:11:05.777Z,2.84
2022-12-07T03:12:05.779Z,2.82
2022-12-07T03:13:05.747Z,2.84
2022-12-07T03:14:05.749Z,2.84
2022-12-07T03:15:13.351Z,2.84
2022-12-07T03:16:13.314Z,2.79
2022-12-07T03:17:13.337Z,2.78
2022-12-07T03:18:13.246Z,2.84
2022-12-07T03:19:05.692Z,2.81
2022-12-07T03:20:05.955Z,2.84
2022-12-07T03:21:05.671Z,2.82
2022-12-07T03:22:05.686Z,2.84
2022-12-07T03:23:05.677Z,2.81
2022-12-07T03:24:05.648Z,2.82
2022-12-07T03:25:05.658Z,2.87
2022-12-07T03:26:05.619Z,2.84
2022-12-07T03:27:05.607Z,2.84
2022-12-07T03:28:05.602Z,2.86
2022-12-07T03:29:05.597Z,2.91
2022-12-07T03:30:05.786Z,2.78
2022-12-07T03:31:05.675Z,2.84
2022-12-07T03:32:05.561Z,2.90
2022-12-07T03:33:05.557Z,2.94
2022-12-07T03:34:05.534Z,2.84
2022-12-07T03:35:05.532Z,2.87
2022-12-07T03:36:05.533Z,2.97
2022-12-07T03:37:05.517Z,2.97
2022-12-07T03:38:05.502Z,2.96
2022-12-07T03:39:05.499Z,2.91
2022-12-07T03:40:05.612Z,2.94
2022-12-07T03:41:05.476Z,2.94
2022-12-07T03:42:05.460Z,2.93
2022-12-07T03:43:05.474Z,2.99
2022-12-07T03:44:05.438Z,2.99
2022-12-07T03:45:05.430Z,2.94
2022-12-07T03:46:05.426Z,3.00
2022-12-07T03:47:05.404Z,2.97
2022-12-07T03:48:05.389Z,3.05
2022-12-07T03:49:05.391Z,3.07
2022-12-07T03:50:05.542Z,2.87
2022-12-07T03:51:05.371Z,3.05
2022-12-07T03:52:05.371Z,2.96
2022-12-07T03:53:05.341Z,2.96
2022-12-07T03:54:05.330Z,2.91
2022-12-07T03:55:05.350Z,3.02
2022-12-07T03:56:05.311Z,3.04
2022-12-07T03:57:05.326Z,2.96
2022-12-07T03:58:05.284Z,2.99
2022-12-07T03:59:05.280Z,2.99
2022-12-07T04:00:05.407Z,2.94
2022-12-07T04:01:05.259Z,3.00
2022-12-07T04:02:05.316Z,2.97
2022-12-07T04:03:05.300Z,3.05
2022-12-07T04:04:05.219Z,3.09
2022-12-07T04:05:05.211Z,3.09
2022-12-07T04:06:05.200Z,3.14
2022-12-07T04:07:05.201Z,3.12
2022-12-07T04:08:05.298Z,3.12
2022-12-07T04:09:05.166Z,3.09
2022-12-07T04:10:05.453Z,3.11
2022-12-07T04:11:05.172Z,3.14
2022-12-07T04:12:05.164Z,3.09
2022-12-07T04:13:05.131Z,2.97
2022-12-07T04:14:05.143Z,3.18
2022-12-07T04:15:05.105Z,3.14
2022-12-07T04:16:05.159Z,3.14
2022-12-07T04:17:05.100Z,3.09
2022-12-07T04:18:05.107Z,3.12
2022-12-07T04:19:05.079Z,3.15
2022-12-07T04:20:05.313Z,3.17
2022-12-07T04:21:05.043Z,3.25
2022-12-07T04:22:05.050Z,3.22
2022-12-07T04:23:05.044Z,3.22
2022-12-07T04:24:05.027Z,3.23
2022-12-07T04:25:05.008Z,3.25
2022-12-07T04:26:04.995Z,3.20
2022-12-07T04:27:05.016Z,3.33
2022-12-07T04:28:04.991Z,3.32
2022-12-07T04:29:07.814Z,3.29
2022-12-07T04:30:05.255Z,3.37
2022-12-07T04:31:04.966Z,3.33
2022-12-07T04:32:04.936Z,3.26
2022-12-07T04:33:04.936Z,3.44
2022-12-07T04:34:04.911Z,3.41
2022-12-07T04:35:04.901Z,3.37
2022-12-07T04:36:04.898Z,3.45
2022-12-07T04:37:04.882Z,3.41
2022-12-07T04:38:04.880Z,3.44
2022-12-07T04:39:04.889Z,3.36
2022-12-07T04:40:05.229Z,3.46
2022-12-07T04:41:04.858Z,3.44
2022-12-07T04:42:04.844Z,3.44
2022-12-07T04:43:04.840Z,3.42
2022-12-07T04:44:04.816Z,3.54
2022-12-07T04:45:04.801Z,3.54
2022-12-07T04:46:04.823Z,3.51
2022-12-07T04:47:04.854Z,3.59
2022-12-07T04:48:04.771Z,3.49
2022-12-07T04:49:04.753Z,3.44
2022-12-07T04:50:05.256Z,3.54
2022-12-07T04:51:04.738Z,3.59
2022-12-07T04:52:04.755Z,3.60
2022-12-07T04:53:04.730Z,3.56
2022-12-07T04:54:04.702Z,3.59
2022-12-07T04:55:04.725Z,3.63
2022-12-07T04:56:04.955Z,3.66
2022-12-07T04:57:04.674Z,3.63
2022-12-07T04:58:13.412Z,3.67
2022-12-07T04:59:04.655Z,3.62
2022-12-07T05:00:05.007Z,3.73
2022-12-07T05:01:04.715Z,3.66
2022-12-07T05:02:04.706Z,3.70
2022-12-07T05:03:04.621Z,3.73
2022-12-07T05:04:04.622Z,3.74
2022-12-07T05:05:04.628Z,3.72
2022-12-07T05:06:07.876Z,3.78
2022-12-07T05:07:05.570Z,3.76
2022-12-07T05:08:04.625Z,3.80
2022-12-07T05:09:04.572Z,3.72
2022-12-07T05:10:05.041Z,3.74
2022-12-07T05:11:04.517Z,3.80
2022-12-07T05:12:04.508Z,3.78
2022-12-07T05:13:04.496Z,3.81
2022-12-07T05:14:04.527Z,3.87
2022-12-07T05:15:04.505Z,3.87
2022-12-07T05:16:04.550Z,3.82
2022-12-07T05:17:04.458Z,3.81
2022-12-07T05:18:04.449Z,3.84
2022-12-07T05:19:04.432Z,3.87
2022-12-07T05:20:04.891Z,3.88
2022-12-07T05:21:04.440Z,3.84
2022-12-07T05:22:04.412Z,3.90
2022-12-07T05:23:04.400Z,3.88
2022-12-07T05:24:04.388Z,3.92
2022-12-07T05:25:04.374Z,3.98
2022-12-07T05:26:04.378Z,3.87
2022-12-07T05:27:04.399Z,3.84
2022-12-07T05:28:04.345Z,3.90
2022-12-07T05:29:04.345Z,3.94
2022-12-07T05:30:04.648Z,3.99
2022-12-07T05:31:04.317Z,3.94
2022-12-07T05:32:04.383Z,3.94
2022-12-07T05:33:04.310Z,3.92
2022-12-07T05:34:04.283Z,3.90
2022-12-07T05:35:04.268Z,3.98
2022-12-07T05:36:12.920Z,3.98
2022-12-07T05:37:11.782Z,4.02
2022-12-07T05:38:11.768Z,4.05
2022-12-07T05:39:11.773Z,4.02
2022-12-07T05:40:04.677Z,3.99
2022-12-07T05:41:04.224Z,4.06
2022-12-07T05:42:04.213Z,4.03
2022-12-07T05:43:05.112Z,4.05
2022-12-07T05:44:04.180Z,4.03
2022-12-07T05:45:04.175Z,4.03
2022-12-07T05:46:04.239Z,4.02
2022-12-07T05:47:04.162Z,4.08
2022-12-07T05:48:04.133Z,4.03
2022-12-07T05:49:04.131Z,3.98
2022-12-07T05:50:04.363Z,4.08
2022-12-07T05:51:04.110Z,4.09
2022-12-07T05:52:04.113Z,3.99
2022-12-07T05:53:04.092Z,4.12
2022-12-07T05:54:04.071Z,4.09
2022-12-07T05:55:04.065Z,4.09
2022-12-07T05:56:04.055Z,4.06
2022-12-07T05:57:04.049Z,4.09
2022-12-07T05:58:04.043Z,4.16
2022-12-07T05:59:04.082Z,4.03
2022-12-07T06:00:11.539Z,4.09
2022-12-07T06:01:04.016Z,4.03
2022-12-07T06:02:04.169Z,4.08
2022-12-07T06:03:04.062Z,4.18
2022-12-07T06:04:03.970Z,4.18
2022-12-07T06:05:03.973Z,4.12
2022-12-07T06:06:04.005Z,4.17
2022-12-07T06:07:03.938Z,4.09
2022-12-07T06:08:06.046Z,4.13
2022-12-07T06:09:03.922Z,4.12
2022-12-07T06:10:04.017Z,4.12
2022-12-07T06:11:03.892Z,4.12
2022-12-07T06:12:03.893Z,4.18
2022-12-07T06:13:03.873Z,4.17
2022-12-07T06:14:03.869Z,4.17
2022-12-07T06:15:03.857Z,4.18
2022-12-07T06:16:03.845Z,4.24
2022-12-07T06:17:03.917Z,4.23
2022-12-07T06:18:03.851Z,4.18
2022-12-07T06:19:03.805Z,4.23
2022-12-07T06:20:04.156Z,4.23
2022-12-07T06:21:03.801Z,4.34
2022-12-07T06:22:03.782Z,4.28
2022-12-07T06:23:03.771Z,4.23
2022-12-07T06:24:03.784Z,4.31
2022-12-07T06:25:08.427Z,4.24
2022-12-07T06:26:04.747Z,4.35
2022-12-07T06:27:03.751Z,4.27
2022-12-07T06:28:03.723Z,4.27
2022-12-07T06:29:03.711Z,4.34
2022-12-07T06:30:04.042Z,4.20
2022-12-07T06:31:03.738Z,4.34
2022-12-07T06:32:03.849Z,4.28
2022-12-07T06:33:03.681Z,4.36
2022-12-07T06:34:03.677Z,4.36
2022-12-07T06:35:03.658Z,4.34
2022-12-07T06:36:03.640Z,4.28
2022-12-07T06:37:03.639Z,4.38
2022-12-07T06:38:03.628Z,4.36
2022-12-07T06:39:03.622Z,4.34
2022-12-07T06:40:03.889Z,4.34
2022-12-07T06:41:03.681Z,4.31
2022-12-07T06:42:03.606Z,4.35
2022-12-07T06:43:03.573Z,4.24
2022-12-07T06:44:03.562Z,4.34
2022-12-07T06:45:03.543Z,4.34
2022-12-07T06:46:03.609Z,4.26
2022-12-07T06:47:31.839Z,4.34
2022-12-07T06:48:04.520Z,4.31
2022-12-07T06:49:03.500Z,4.39
2022-12-07T06:50:03.823Z,4.31
2022-12-07T06:51:03.502Z,4.30
2022-12-07T06:52:03.517Z,4.34
2022-12-07T06:53:03.470Z,4.38
2022-12-07T06:54:03.454Z,4.30
2022-12-07T06:55:03.439Z,4.28
2022-12-07T06:56:03.429Z,4.35
2022-12-07T06:57:03.435Z,4.35
2022-12-07T06:58:03.403Z,4.36
2022-12-07T06:59:03.400Z,4.27
2022-12-07T07:00:03.866Z,4.36
2022-12-07T07:01:03.424Z,4.34
2022-12-07T07:02:03.421Z,4.28
2022-12-07T07:03:03.366Z,4.35
2022-12-07T07:04:03.337Z,4.30
2022-12-07T07:05:03.331Z,4.30
2022-12-07T07:06:03.340Z,4.35
2022-12-07T07:07:03.342Z,4.38
2022-12-07T07:09:04.416Z,4.36
2022-12-07T07:10:03.726Z,4.35
2022-12-07T07:11:03.273Z,4.43
2022-12-07T07:12:03.255Z,4.39
2022-12-07T07:13:03.267Z,4.38
2022-12-07T07:14:03.239Z,4.38
2022-12-07T07:15:03.240Z,4.39
2022-12-07T07:16:03.225Z,4.38
2022-12-07T07:17:03.284Z,4.38
2022-12-07T07:18:07.761Z,4.39
2022-12-07T07:19:03.195Z,4.49
2022-12-07T07:20:03.447Z,4.30
2022-12-07T07:21:03.203Z,4.35
2022-12-07T07:22:03.178Z,4.45
2022-12-07T07:23:03.163Z,4.38
2022-12-07T07:24:03.132Z,4.43
2022-12-07T07:25:03.124Z,4.39
2022-12-07T07:26:03.120Z,4.42
2022-12-07T07:27:03.111Z,4.51
2022-12-07T07:28:03.126Z,4.39
2022-12-07T07:29:03.111Z,4.39
2022-12-07T07:30:03.360Z,4.48
2022-12-07T07:31:03.109Z,4.41
2022-12-07T07:32:06.669Z,4.48
2022-12-07T07:33:03.058Z,4.51
2022-12-07T07:34:03.051Z,4.59
2022-12-07T07:35:03.037Z,4.54
2022-12-07T07:36:03.017Z,4.49
2022-12-07T07:37:03.010Z,4.63
2022-12-07T07:38:03.010Z,4.49
2022-12-07T07:39:10.520Z,4.61
2022-12-07T07:40:03.148Z,4.67
2022-12-07T07:41:02.972Z,4.63
2022-12-07T07:42:02.970Z,4.61
2022-12-07T07:43:02.944Z,4.63
2022-12-07T07:44:02.939Z,4.67
2022-12-07T07:45:02.956Z,4.69
2022-12-07T07:46:03.007Z,4.75
2022-12-07T07:47:02.915Z,4.72
2022-12-07T07:48:02.905Z,4.72
2022-12-07T07:49:02.887Z,4.66
2022-12-07T07:50:03.140Z,4.69
2022-12-07T07:51:02.895Z,4.66
2022-12-07T07:52:02.850Z,4.77
2022-12-07T07:53:02.838Z,4.74
2022-12-07T07:54:02.851Z,4.71
2022-12-07T07:55:02.822Z,4.79
2022-12-07T07:56:02.826Z,4.66
2022-12-07T07:57:02.817Z,4.71
2022-12-07T07:58:02.798Z,4.74
2022-12-07T07:59:02.795Z,4.82
2022-12-07T08:00:03.092Z,4.83
2022-12-07T08:01:02.815Z,4.82
2022-12-07T08:02:02.821Z,4.82
2022-12-07T08:03:02.766Z,4.82
2022-12-07T08:04:02.730Z,4.82
2022-12-07T08:05:02.872Z,4.83
2022-12-07T08:06:02.717Z,4.83
2022-12-07T08:07:02.704Z,4.82
2022-12-07T08:08:02.819Z,4.85
2022-12-07T08:09:02.685Z,4.83
2022-12-07T08:10:03.159Z,4.74
2022-12-07T08:11:02.732Z,4.72
2022-12-07T08:12:02.649Z,4.79
2022-12-07T08:13:02.641Z,4.79
2022-12-07T08:14:02.635Z,4.77
2022-12-07T08:15:02.639Z,4.72
2022-12-07T08:16:02.699Z,4.71
2022-12-07T08:17:02.608Z,4.82
2022-12-07T08:18:02.587Z,4.72
2022-12-07T08:19:02.582Z,4.75
2022-12-07T08:20:03.041Z,4.72
2022-12-07T08:21:02.592Z,4.74
2022-12-07T08:22:02.557Z,4.66
2022-12-07T08:23:02.547Z,4.78
2022-12-07T08:24:02.528Z,4.72
2022-12-07T08:25:02.528Z,4.77
2022-12-07T08:26:02.527Z,4.67
2022-12-07T08:27:02.517Z,4.77
2022-12-07T08:28:02.495Z,4.69
2022-12-07T08:29:02.483Z,4.79
2022-12-07T08:30:02.980Z,4.75
2022-12-07T08:31:02.533Z,4.69
2022-12-07T08:32:07.979Z,4.78
2022-12-07T08:33:03.444Z,4.75
2022-12-07T08:34:02.430Z,4.74
2022-12-07T08:35:02.409Z,4.75
2022-12-07T08:36:02.435Z,4.75
2022-12-07T08:37:02.399Z,4.74
2022-12-07T08:38:02.382Z,4.71
2022-12-07T08:39:30.451Z,4.71
2022-12-07T08:40:03.627Z,4.72
2022-12-07T08:41:02.365Z,4.74
2022-12-07T08:42:02.356Z,4.78
2022-12-07T08:43:02.333Z,4.77
2022-12-07T08:44:02.314Z,4.74
2022-12-07T08:45:02.307Z,4.74
2022-12-07T08:46:02.352Z,4.72
2022-12-07T08:47:02.312Z,4.77
2022-12-07T08:48:02.288Z,4.78
2022-12-07T08:49:02.267Z,4.77
2022-12-07T08:50:02.697Z,4.67
2022-12-07T08:51:02.255Z,4.72
2022-12-07T08:52:02.251Z,4.71
2022-12-07T08:53:02.236Z,4.67
2022-12-07T08:54:02.222Z,4.72
2022-12-07T08:55:02.208Z,4.85
2022-12-07T08:56:02.199Z,4.75
2022-12-07T08:57:02.184Z,4.79
2022-12-07T08:58:02.202Z,4.83
2022-12-07T08:59:02.170Z,4.67
2022-12-07T09:00:02.419Z,4.79
2022-12-07T09:01:02.160Z,4.64
2022-12-07T09:02:02.245Z,4.71
2022-12-07T09:03:02.140Z,4.63
2022-12-07T09:04:02.127Z,4.64
2022-12-07T09:05:02.113Z,4.69
2022-12-07T09:06:02.304Z,4.77
2022-12-07T09:07:02.235Z,4.67
2022-12-07T09:08:02.157Z,4.67
2022-12-07T09:09:02.083Z,4.77
2022-12-07T09:10:02.624Z,4.74
2022-12-07T09:11:02.059Z,4.69
2022-12-07T09:12:02.042Z,4.67
2022-12-07T09:13:02.046Z,4.74
2022-12-07T09:14:02.053Z,4.74
2022-12-07T09:15:02.004Z,4.64
2022-12-07T09:16:02.133Z,4.71
2022-12-07T09:17:02.015Z,4.77
2022-12-07T09:18:09.817Z,4.72
2022-12-07T09:19:09.511Z,4.78
2022-12-07T09:20:02.523Z,4.69
2022-12-07T09:21:01.951Z,4.75
2022-12-07T09:22:01.934Z,4.67
2022-12-07T09:23:01.939Z,4.75
2022-12-07T09:24:01.933Z,4.74
2022-12-07T09:25:01.910Z,4.72
2022-12-07T09:26:04.858Z,4.77
2022-12-07T09:27:02.900Z,4.67
2022-12-07T09:28:01.869Z,4.72
2022-12-07T09:29:01.847Z,4.71
2022-12-07T09:30:02.091Z,4.77
2022-12-07T09:31:26.070Z,4.77
2022-12-07T09:32:08.269Z,4.67
2022-12-07T09:33:02.807Z,4.61
2022-12-07T09:34:01.952Z,4.60
2022-12-07T09:35:01.797Z,4.61
2022-12-07T09:36:01.776Z,4.60
2022-12-07T09:37:01.780Z,4.64
2022-12-07T09:38:01.766Z,4.59
2022-12-07T09:39:01.749Z,4.67
2022-12-07T09:40:01.772Z,4.57
2022-12-07T09:41:01.745Z,4.56
2022-12-07T09:42:01.717Z,4.64
2022-12-07T09:43:01.782Z,4.64
2022-12-07T09:44:01.713Z,4.57
2022-12-07T09:45:01.687Z,4.67
2022-12-07T09:46:01.773Z,4.63
2022-12-07T09:47:01.671Z,4.59
2022-12-07T09:48:01.648Z,4.64
2022-12-07T09:49:01.659Z,4.61
2022-12-07T09:50:01.978Z,4.69
2022-12-07T09:51:01.621Z,4.72
2022-12-07T09:52:01.605Z,4.91
2022-12-07T09:53:01.604Z,4.85
2022-12-07T09:54:01.610Z,4.69
2022-12-07T09:55:01.988Z,4.79
2022-12-07T09:56:01.592Z,4.74
2022-12-07T09:57:01.567Z,4.72
2022-12-07T09:58:01.548Z,4.72
2022-12-07T09:59:01.569Z,4.71
2022-12-07T10:00:01.550Z,4.82
2022-12-07T10:01:01.506Z,4.85
2022-12-07T10:02:01.551Z,4.93
2022-12-07T10:03:01.506Z,4.86
2022-12-07T10:04:01.486Z,4.86
2022-12-07T10:05:02.007Z,4.93
2022-12-07T10:06:01.473Z,4.96
2022-12-07T10:07:01.458Z,4.88
2022-12-07T10:08:01.538Z,4.86
2022-12-07T10:09:01.439Z,4.85
2022-12-07T10:10:01.429Z,4.79
2022-12-07T10:11:01.416Z,4.82
2022-12-07T10:12:01.450Z,4.85
2022-12-07T10:13:01.396Z,4.83
2022-12-07T10:14:01.383Z,4.85
2022-12-07T10:15:09.106Z,4.83
2022-12-07T10:16:06.777Z,4.83
2022-12-07T10:17:01.359Z,4.85
2022-12-07T10:18:01.377Z,4.83
2022-12-07T10:19:01.322Z,4.93
2022-12-07T10:20:01.325Z,4.91
2022-12-07T10:21:01.296Z,4.96
2022-12-07T10:22:01.306Z,4.89
2022-12-07T10:23:01.281Z,4.89
2022-12-07T10:24:01.275Z,4.89
2022-12-07T10:25:01.712Z,5.01
2022-12-07T10:26:01.284Z,5.09
2022-12-07T10:27:01.238Z,4.93
2022-12-07T10:28:01.225Z,5.24
2022-12-07T10:29:01.221Z,5.19
2022-12-07T10:30:01.215Z,5.16
2022-12-07T10:31:01.347Z,5.32
2022-12-07T10:32:01.199Z,5.34
2022-12-07T10:33:01.195Z,5.21
2022-12-07T10:34:01.183Z,5.30
2022-12-07T10:35:01.167Z,5.24
2022-12-07T10:36:01.145Z,5.37
2022-12-07T10:37:01.132Z,5.37
2022-12-07T10:38:01.118Z,5.19
2022-12-07T10:39:01.136Z,5.14
2022-12-07T10:40:01.095Z,5.14
2022-12-07T10:41:01.095Z,5.14
2022-12-07T10:42:01.074Z,5.27
2022-12-07T10:43:01.104Z,5.21
2022-12-07T10:44:01.067Z,5.33
2022-12-07T10:45:01.491Z,5.27
2022-12-07T10:46:05.438Z,5.27
2022-12-07T10:47:02.250Z,5.32
2022-12-07T10:48:01.053Z,5.18
2022-12-07T10:49:00.999Z,5.21
2022-12-07T10:50:01.025Z,5.25
2022-12-07T10:51:01.043Z,5.29
2022-12-07T10:52:00.990Z,5.29
2022-12-07T10:53:00.965Z,5.21
2022-12-07T10:54:00.960Z,5.18
2022-12-07T10:55:01.442Z,5.16
2022-12-07T10:56:00.932Z,5.16
2022-12-07T10:57:00.936Z,5.21
2022-12-07T10:58:08.457Z,5.15
2022-12-07T10:59:00.910Z,5.06
2022-12-07T11:00:00.900Z,5.14
2022-12-07T11:01:00.933Z,5.09
2022-12-07T11:02:00.908Z,5.11
2022-12-07T11:03:00.860Z,5.15
2022-12-07T11:04:00.874Z,5.11
2022-12-07T11:05:01.186Z,5.12
2022-12-07T11:06:00.852Z,5.01
2022-12-07T11:07:00.839Z,5.14
2022-12-07T11:08:00.890Z,5.12
2022-12-07T11:09:00.796Z,5.07
2022-12-07T11:10:19.197Z,5.09
2022-12-07T11:11:01.774Z,5.04
2022-12-07T11:12:00.777Z,5.00
2022-12-07T11:13:00.761Z,5.03
2022-12-07T11:14:00.741Z,5.07
2022-12-07T11:15:00.734Z,5.09
2022-12-07T11:16:00.763Z,5.14
2022-12-07T11:17:00.707Z,5.14
2022-12-07T11:18:00.710Z,5.18
2022-12-07T11:19:00.691Z,5.18
2022-12-07T11:20:00.948Z,5.18
2022-12-07T11:21:00.691Z,5.16
2022-12-07T11:22:00.671Z,5.14
2022-12-07T11:23:00.666Z,5.22
2022-12-07T11:24:00.637Z,5.25
2022-12-07T11:25:00.617Z,5.21
2022-12-07T11:26:00.650Z,5.18
2022-12-07T11:27:00.605Z,5.24
2022-12-07T11:28:00.590Z,5.29
2022-12-07T11:29:00.620Z,5.33
2022-12-07T11:30:01.017Z,5.40
2022-12-07T11:31:00.586Z,5.51
2022-12-07T11:32:00.643Z,5.51
2022-12-07T11:33:00.533Z,5.47
2022-12-07T11:34:00.521Z,5.37
2022-12-07T11:35:00.521Z,5.50
2022-12-07T11:36:00.554Z,5.52
2022-12-07T11:37:00.505Z,5.57
2022-12-07T11:38:00.511Z,5.58
2022-12-07T11:39:00.490Z,5.65
2022-12-07T11:40:00.782Z,5.62
2022-12-07T11:41:00.458Z,5.65
2022-12-07T11:42:00.451Z,5.61
2022-12-07T11:43:00.471Z,5.65
2022-12-07T11:44:00.461Z,5.47
2022-12-07T11:45:00.425Z,5.59
2022-12-07T11:46:00.409Z,5.55
2022-12-07T11:47:00.442Z,5.55
2022-12-07T11:48:00.394Z,5.44
2022-12-07T11:49:00.388Z,5.58
2022-12-07T11:50:00.372Z,5.58
2022-12-07T11:51:00.353Z,5.61
2022-12-07T11:52:00.339Z,5.59
2022-12-07T11:53:00.330Z,5.59
2022-12-07T11:54:00.344Z,5.57
2022-12-07T11:55:00.332Z,5.70
2022-12-07T11:56:00.305Z,5.58
2022-12-07T11:57:00.289Z,5.55
2022-12-07T11:58:00.277Z,5.57
2022-12-07T11:59:00.265Z,5.58
2022-12-07T12:00:00.576Z,5.67
2022-12-07T12:01:00.245Z,5.58
2022-12-07T12:02:00.384Z,5.61
2022-12-07T12:03:00.266Z,5.69
2022-12-07T12:04:00.213Z,5.69
2022-12-07T12:05:00.202Z,5.67
2022-12-07T12:06:00.223Z,5.52
2022-12-07T12:10:01.614Z,5.87
2022-12-07T12:11:00.149Z,5.85
2022-12-07T12:15:01.405Z,5.87
2022-12-07T12:16:00.173Z,5.85
2022-12-07T12:17:00.170Z,5.79
2022-12-07T12:18:00.091Z,5.87
2022-12-07T12:19:00.098Z,5.94
2022-12-07T12:20:00.077Z,5.90
2022-12-07T12:21:00.050Z,5.93
2022-12-07T12:22:00.075Z,5.91
2022-12-07T12:23:00.028Z,5.82
2022-12-07T12:24:00.033Z,5.90
2022-12-07T12:25:00.344Z,5.85
2022-12-07T12:26:00.072Z,5.85
2022-12-07T12:27:00.016Z,5.77
2022-12-07T12:27:59.980Z,5.80
2022-12-07T12:28:59.975Z,5.67
2022-12-07T12:30:08.657Z,5.84
2022-12-07T12:31:07.495Z,5.84
2022-12-07T12:32:09.827Z,5.77
2022-12-07T12:32:59.921Z,5.72
2022-12-07T12:33:59.904Z,5.75
2022-12-07T12:34:59.943Z,5.80
2022-12-07T12:35:59.921Z,5.87
2022-12-07T12:37:07.414Z,5.88
2022-12-07T12:37:59.873Z,5.90
2022-12-07T12:38:59.870Z,5.94
2022-12-07T12:39:59.864Z,5.88
2022-12-07T12:40:59.851Z,5.94
2022-12-07T12:41:59.858Z,5.95
2022-12-07T12:42:59.820Z,5.95
2022-12-07T12:43:59.804Z,5.91
2022-12-07T12:45:00.012Z,5.94
2022-12-07T12:45:59.819Z,5.88
2022-12-07T12:46:59.785Z,5.94
2022-12-07T12:47:59.769Z,5.91
2022-12-07T12:48:59.747Z,5.91
2022-12-07T12:49:59.751Z,5.90
2022-12-07T12:50:59.735Z,5.88
2022-12-07T12:51:59.722Z,5.79
2022-12-07T12:52:59.725Z,5.88
2022-12-07T12:53:59.698Z,5.85
2022-12-07T12:54:59.997Z,5.88
2022-12-07T12:55:59.693Z,5.80
2022-12-07T12:56:59.674Z,5.79
2022-12-07T12:57:59.702Z,5.82
2022-12-07T12:58:59.661Z,5.85
2022-12-07T12:59:59.688Z,5.82
2022-12-07T13:00:59.739Z,5.77
2022-12-07T13:01:59.694Z,5.72
2022-12-07T13:02:59.608Z,5.76
2022-12-07T13:03:59.606Z,5.70
2022-12-07T13:04:59.780Z,5.75
2022-12-07T13:05:59.572Z,5.67
2022-12-07T13:06:59.568Z,5.72
2022-12-07T13:07:59.658Z,5.65
2022-12-07T13:08:59.559Z,5.59
2022-12-07T13:09:59.529Z,5.54
2022-12-07T13:10:59.541Z,5.59
2022-12-07T13:11:59.506Z,5.67
2022-12-07T13:12:59.504Z,5.62
2022-12-07T13:13:59.511Z,5.58
2022-12-07T13:14:59.708Z,5.55
2022-12-07T13:15:59.470Z,5.62
2022-12-07T13:16:59.560Z,5.67
2022-12-07T13:17:59.475Z,5.54
2022-12-07T13:18:59.435Z,5.59
2022-12-07T13:19:59.439Z,5.59
2022-12-07T13:20:59.432Z,5.48
2022-12-07T13:21:59.401Z,5.54
2022-12-07T13:22:59.399Z,5.52
2022-12-07T13:23:59.378Z,5.48
2022-12-07T13:24:59.443Z,5.39
2022-12-07T13:25:59.384Z,5.48